sensor_id;sensor_type;location;lat;lon;timestamp;P1;P2;P0
80413;PMS5003;69758;52.580;13.068;2023-11-25T00:01:25;0;0;
80413;PMS5003;69758;52.580;13.068;2023-11-25T00:03:51;0;0;
80413;PMS5003;69758;52.580;13.068;2023-11-25T00:06:16;0;0;
80413;PMS5003;69758;52.580;13.068;2023-11-25T00:08:42;1;0;
80413;PMS5003;69758;52.580;13.068;2023-11-25T00:11:07;1;1;
80413;PMS5003;69758;52.580;13.068;2023-11-25T00:13:33;0;0;
80413;PMS5003;69758;52.580;13.068;2023-11-25T00:15:58;0;0;
80413;PMS5003;69758;52.580;13.068;2023-11-25T00:18:24;0;0;
80413;PMS5003;69758;52.580;13.068;2023-11-25T00:20:49;1;0;
80413;PMS5003;69758;52.580;13.068;2023-11-25T00:23:15;0;0;
80413;PMS5003;69758;52.580;13.068;2023-11-25T00:25:40;0;0;
80413;PMS5003;69758;52.580;13.068;2023-11-25T00:28:06;1;1;
80413;PMS5003;69758;52.580;13.068;2023-11-25T00:30:31;0;0;
80413;PMS5003;69758;52.580;13.068;2023-11-25T00:37:48;0;0;
80413;PMS5003;69758;52.580;13.068;2023-11-25T00:40:13;0;0;
80413;PMS5003;69758;52.580;13.068;2023-11-25T00:42:39;1;0;
80413;PMS5003;69758;52.580;13.068;2023-11-25T00:45:05;1;1;
80413;PMS5003;69758;52.580;13.068;2023-11-25T00:47:30;1;1;
80413;PMS5003;69758;52.580;13.068;2023-11-25T00:49:56;0;0;
80413;PMS5003;69758;52.580;13.068;2023-11-25T00:52:21;0;0;
80413;PMS5003;69758;52.580;13.068;2023-11-25T00:54:47;0;0;
80413;PMS5003;69758;52.580;13.068;2023-11-25T00:57:12;0;0;
80413;PMS5003;69758;52.580;13.068;2023-11-25T00:59:38;2;1;
80413;PMS5003;69758;52.580;13.068;2023-11-25T01:02:03;0;0;
80413;PMS5003;69758;52.580;13.068;2023-11-25T01:04:29;0;0;
80413;PMS5003;69758;52.580;13.068;2023-11-25T01:06:54;0;0;
80413;PMS5003;69758;52.580;13.068;2023-11-25T01:09:20;0;0;
80413;PMS5003;69758;52.580;13.068;2023-11-25T01:11:45;0;0;
80413;PMS5003;69758;52.580;13.068;2023-11-25T01:14:11;0;0;
80413;PMS5003;69758;52.580;13.068;2023-11-25T01:16:36;0;0;
80413;PMS5003;69758;52.580;13.068;2023-11-25T01:19:07;2;1;
80413;PMS5003;69758;52.580;13.068;2023-11-25T01:21:27;0;0;
80413;PMS5003;69758;52.580;13.068;2023-11-25T01:23:53;0;0;
80413;PMS5003;69758;52.580;13.068;2023-11-25T01:26:18;1;0;
80413;PMS5003;69758;52.580;13.068;2023-11-25T01:28:44;2;2;
80413;PMS5003;69758;52.580;13.068;2023-11-25T01:31:10;1;0;
80413;PMS5003;69758;52.580;13.068;2023-11-25T01:33:35;0;0;
80413;PMS5003;69758;52.580;13.068;2023-11-25T01:36:00;1;1;
80413;PMS5003;69758;52.580;13.068;2023-11-25T01:38:26;0;0;
80413;PMS5003;69758;52.580;13.068;2023-11-25T01:40:51;0;0;
80413;PMS5003;69758;52.580;13.068;2023-11-25T01:43:19;0;0;
80413;PMS5003;69758;52.580;13.068;2023-11-25T01:45:43;1;0;
80413;PMS5003;69758;52.580;13.068;2023-11-25T01:48:08;0;0;
80413;PMS5003;69758;52.580;13.068;2023-11-25T01:50:39;1;0;
80413;PMS5003;69758;52.580;13.068;2023-11-25T01:52:59;2;1;
80413;PMS5003;69758;52.580;13.068;2023-11-25T01:55:25;1;1;
80413;PMS5003;69758;52.580;13.068;2023-11-25T01:57:50;0;0;
80413;PMS5003;69758;52.580;13.068;2023-11-25T02:00:16;0;0;
80413;PMS5003;69758;52.580;13.068;2023-11-25T02:02:41;0;0;
80413;PMS5003;69758;52.580;13.068;2023-11-25T02:05:07;0;0;
80413;PMS5003;69758;52.580;13.068;2023-11-25T02:07:32;0;0;
80413;PMS5003;69758;52.580;13.068;2023-11-25T02:09:58;0;0;
80413;PMS5003;69758;52.580;13.068;2023-11-25T02:12:23;0;0;
80413;PMS5003;69758;52.580;13.068;2023-11-25T02:14:49;0;0;
80413;PMS5003;69758;52.580;13.068;2023-11-25T02:17:14;0;0;
80413;PMS5003;69758;52.580;13.068;2023-11-25T02:19:41;0;0;
80413;PMS5003;69758;52.580;13.068;2023-11-25T02:22:07;0;0;
80413;PMS5003;69758;52.580;13.068;2023-11-25T02:24:31;1;1;
80413;PMS5003;69758;52.580;13.068;2023-11-25T02:26:57;0;0;
80413;PMS5003;69758;52.580;13.068;2023-11-25T02:29:22;1;1;
80413;PMS5003;69758;52.580;13.068;2023-11-25T02:31:47;1;0;
80413;PMS5003;69758;52.580;13.068;2023-11-25T02:34:13;0;0;
80413;PMS5003;69758;52.580;13.068;2023-11-25T02:36:38;0;0;
80413;PMS5003;69758;52.580;13.068;2023-11-25T02:39:04;0;0;
80413;PMS5003;69758;52.580;13.068;2023-11-25T02:41:29;0;0;
80413;PMS5003;69758;52.580;13.068;2023-11-25T02:43:55;1;1;
80413;PMS5003;69758;52.580;13.068;2023-11-25T02:46:21;1;1;
80413;PMS5003;69758;52.580;13.068;2023-11-25T02:48:46;1;1;
80413;PMS5003;69758;52.580;13.068;2023-11-25T02:51:12;1;1;
80413;PMS5003;69758;52.580;13.068;2023-11-25T02:53:37;1;1;
80413;PMS5003;69758;52.580;13.068;2023-11-25T02:56:03;0;0;
80413;PMS5003;69758;52.580;13.068;2023-11-25T02:58:28;1;1;
80413;PMS5003;69758;52.580;13.068;2023-11-25T03:00:54;0;0;
80413;PMS5003;69758;52.580;13.068;2023-11-25T03:03:19;2;1;
80413;PMS5003;69758;52.580;13.068;2023-11-25T03:05:45;2;2;
80413;PMS5003;69758;52.580;13.068;2023-11-25T03:08:10;1;1;
80413;PMS5003;69758;52.580;13.068;2023-11-25T03:10:37;0;0;
80413;PMS5003;69758;52.580;13.068;2023-11-25T03:13:01;2;2;
80413;PMS5003;69758;52.580;13.068;2023-11-25T03:15:27;1;1;
80413;PMS5003;69758;52.580;13.068;2023-11-25T03:17:52;0;0;
80413;PMS5003;69758;52.580;13.068;2023-11-25T03:20:18;0;0;
80413;PMS5003;69758;52.580;13.068;2023-11-25T03:22:43;1;0;
80413;PMS5003;69758;52.580;13.068;2023-11-25T03:25:09;1;1;
80413;PMS5003;69758;52.580;13.068;2023-11-25T03:27:35;1;1;
80413;PMS5003;69758;52.580;13.068;2023-11-25T03:30:00;0;0;
80413;PMS5003;69758;52.580;13.068;2023-11-25T03:32:26;0;0;
80413;PMS5003;69758;52.580;13.068;2023-11-25T03:34:51;0;0;
80413;PMS5003;69758;52.580;13.068;2023-11-25T03:37:17;2;1;
80413;PMS5003;69758;52.580;13.068;2023-11-25T03:39:42;0;0;
80413;PMS5003;69758;52.580;13.068;2023-11-25T03:42:08;0;0;
80413;PMS5003;69758;52.580;13.068;2023-11-25T03:44:33;0;0;
80413;PMS5003;69758;52.580;13.068;2023-11-25T03:46:59;1;1;
80413;PMS5003;69758;52.580;13.068;2023-11-25T03:49:24;1;1;
80413;PMS5003;69758;52.580;13.068;2023-11-25T03:51:50;1;1;
80413;PMS5003;69758;52.580;13.068;2023-11-25T03:54:15;1;1;
80413;PMS5003;69758;52.580;13.068;2023-11-25T03:56:41;0;0;
80413;PMS5003;69758;52.580;13.068;2023-11-25T03:59:06;2;1;
80413;PMS5003;69758;52.580;13.068;2023-11-25T04:01:32;1;1;
80413;PMS5003;69758;52.580;13.068;2023-11-25T04:03:57;0;0;
80413;PMS5003;69758;52.580;13.068;2023-11-25T04:06:23;2;2;
80413;PMS5003;69758;52.580;13.068;2023-11-25T04:08:48;2;2;
80413;PMS5003;69758;52.580;13.068;2023-11-25T04:11:14;2;1;
80413;PMS5003;69758;52.580;13.068;2023-11-25T04:13:40;1;1;
80413;PMS5003;69758;52.580;13.068;2023-11-25T04:16:06;1;1;
80413;PMS5003;69758;52.580;13.068;2023-11-25T04:18:31;3;1;
80413;PMS5003;69758;52.580;13.068;2023-11-25T04:20:56;1;1;
80413;PMS5003;69758;52.580;13.068;2023-11-25T04:23:22;3;3;
80413;PMS5003;69758;52.580;13.068;2023-11-25T04:25:47;1;1;
80413;PMS5003;69758;52.580;13.068;2023-11-25T04:28:13;1;1;
80413;PMS5003;69758;52.580;13.068;2023-11-25T04:30:38;2;1;
80413;PMS5003;69758;52.580;13.068;2023-11-25T04:33:06;1;0;
80413;PMS5003;69758;52.580;13.068;2023-11-25T04:35:29;2;2;
80413;PMS5003;69758;52.580;13.068;2023-11-25T04:37:55;3;2;
80413;PMS5003;69758;52.580;13.068;2023-11-25T04:40:20;2;2;
80413;PMS5003;69758;52.580;13.068;2023-11-25T04:42:46;1;1;
80413;PMS5003;69758;52.580;13.068;2023-11-25T04:45:12;1;0;
80413;PMS5003;69758;52.580;13.068;2023-11-25T04:47:37;1;1;
80413;PMS5003;69758;52.580;13.068;2023-11-25T04:50:03;2;1;
80413;PMS5003;69758;52.580;13.068;2023-11-25T04:52:28;2;1;
80413;PMS5003;69758;52.580;13.068;2023-11-25T04:54:53;2;1;
80413;PMS5003;69758;52.580;13.068;2023-11-25T04:57:19;1;0;
80413;PMS5003;69758;52.580;13.068;2023-11-25T04:59:44;1;1;
80413;PMS5003;69758;52.580;13.068;2023-11-25T05:02:10;1;1;
80413;PMS5003;69758;52.580;13.068;2023-11-25T05:04:35;0;0;
80413;PMS5003;69758;52.580;13.068;2023-11-25T05:07:01;2;2;
80413;PMS5003;69758;52.580;13.068;2023-11-25T05:09:27;1;1;
80413;PMS5003;69758;52.580;13.068;2023-11-25T05:11:52;2;1;
80413;PMS5003;69758;52.580;13.068;2023-11-25T05:14:18;1;1;
80413;PMS5003;69758;52.580;13.068;2023-11-25T05:16:43;0;0;
80413;PMS5003;69758;52.580;13.068;2023-11-25T05:19:09;1;1;
80413;PMS5003;69758;52.580;13.068;2023-11-25T05:21:34;2;2;
80413;PMS5003;69758;52.580;13.068;2023-11-25T05:24:00;1;1;
80413;PMS5003;69758;52.580;13.068;2023-11-25T05:26:25;1;1;
80413;PMS5003;69758;52.580;13.068;2023-11-25T05:28:51;1;1;
80413;PMS5003;69758;52.580;13.068;2023-11-25T05:31:16;0;0;
80413;PMS5003;69758;52.580;13.068;2023-11-25T05:33:42;1;1;
80413;PMS5003;69758;52.580;13.068;2023-11-25T05:36:08;2;2;
80413;PMS5003;69758;52.580;13.068;2023-11-25T05:38:33;0;0;
80413;PMS5003;69758;52.580;13.068;2023-11-25T05:40:58;1;1;
80413;PMS5003;69758;52.580;13.068;2023-11-25T05:43:24;1;1;
80413;PMS5003;69758;52.580;13.068;2023-11-25T05:45:49;1;1;
80413;PMS5003;69758;52.580;13.068;2023-11-25T05:48:15;0;0;
80413;PMS5003;69758;52.580;13.068;2023-11-25T05:50:40;3;2;
80413;PMS5003;69758;52.580;13.068;2023-11-25T05:53:06;3;2;
80413;PMS5003;69758;52.580;13.068;2023-11-25T05:55:31;1;1;
80413;PMS5003;69758;52.580;13.068;2023-11-25T05:57:57;1;1;
80413;PMS5003;69758;52.580;13.068;2023-11-25T06:00:23;1;1;
80413;PMS5003;69758;52.580;13.068;2023-11-25T06:02:48;1;1;
80413;PMS5003;69758;52.580;13.068;2023-11-25T06:05:14;1;1;
80413;PMS5003;69758;52.580;13.068;2023-11-25T06:07:39;1;1;
80413;PMS5003;69758;52.580;13.068;2023-11-25T06:10:05;1;1;
80413;PMS5003;69758;52.580;13.068;2023-11-25T06:12:30;0;0;
80413;PMS5003;69758;52.580;13.068;2023-11-25T06:14:56;1;1;
80413;PMS5003;69758;52.580;13.068;2023-11-25T06:17:22;1;1;
80413;PMS5003;69758;52.580;13.068;2023-11-25T06:19:47;0;0;
80413;PMS5003;69758;52.580;13.068;2023-11-25T06:22:12;0;0;
80413;PMS5003;69758;52.580;13.068;2023-11-25T06:24:38;0;0;
80413;PMS5003;69758;52.580;13.068;2023-11-25T06:27:03;1;1;
80413;PMS5003;69758;52.580;13.068;2023-11-25T06:29:29;1;1;
80413;PMS5003;69758;52.580;13.068;2023-11-25T06:31:54;0;0;
80413;PMS5003;69758;52.580;13.068;2023-11-25T06:34:20;1;1;
80413;PMS5003;69758;52.580;13.068;2023-11-25T06:36:45;1;1;
80413;PMS5003;69758;52.580;13.068;2023-11-25T06:39:11;1;1;
80413;PMS5003;69758;52.580;13.068;2023-11-25T06:41:36;1;1;
80413;PMS5003;69758;52.580;13.068;2023-11-25T06:44:02;1;1;
80413;PMS5003;69758;52.580;13.068;2023-11-25T06:46:27;3;1;
80413;PMS5003;69758;52.580;13.068;2023-11-25T06:48:53;0;0;
80413;PMS5003;69758;52.580;13.068;2023-11-25T06:51:18;1;1;
80413;PMS5003;69758;52.580;13.068;2023-11-25T06:53:44;0;0;
80413;PMS5003;69758;52.580;13.068;2023-11-25T06:56:10;0;0;
80413;PMS5003;69758;52.580;13.068;2023-11-25T06:58:35;2;1;
80413;PMS5003;69758;52.580;13.068;2023-11-25T07:01:01;3;3;
80413;PMS5003;69758;52.580;13.068;2023-11-25T07:03:26;2;2;
80413;PMS5003;69758;52.580;13.068;2023-11-25T07:05:52;0;0;
80413;PMS5003;69758;52.580;13.068;2023-11-25T07:08:17;1;1;
80413;PMS5003;69758;52.580;13.068;2023-11-25T07:10:42;1;1;
80413;PMS5003;69758;52.580;13.068;2023-11-25T07:13:08;1;0;
80413;PMS5003;69758;52.580;13.068;2023-11-25T07:15:33;0;0;
80413;PMS5003;69758;52.580;13.068;2023-11-25T07:17:59;1;1;
80413;PMS5003;69758;52.580;13.068;2023-11-25T07:20:25;2;2;
80413;PMS5003;69758;52.580;13.068;2023-11-25T07:22:50;0;0;
80413;PMS5003;69758;52.580;13.068;2023-11-25T07:25:16;2;1;
80413;PMS5003;69758;52.580;13.068;2023-11-25T07:27:42;1;1;
80413;PMS5003;69758;52.580;13.068;2023-11-25T07:30:07;1;0;
80413;PMS5003;69758;52.580;13.068;2023-11-25T07:32:32;0;0;
80413;PMS5003;69758;52.580;13.068;2023-11-25T07:34:58;1;1;
80413;PMS5003;69758;52.580;13.068;2023-11-25T07:37:23;1;0;
80413;PMS5003;69758;52.580;13.068;2023-11-25T07:39:49;0;0;
80413;PMS5003;69758;52.580;13.068;2023-11-25T07:42:14;2;1;
80413;PMS5003;69758;52.580;13.068;2023-11-25T07:44:40;1;1;
80413;PMS5003;69758;52.580;13.068;2023-11-25T07:47:05;2;2;
80413;PMS5003;69758;52.580;13.068;2023-11-25T07:49:31;1;1;
80413;PMS5003;69758;52.580;13.068;2023-11-25T07:51:56;2;2;
80413;PMS5003;69758;52.580;13.068;2023-11-25T07:54:22;1;1;
80413;PMS5003;69758;52.580;13.068;2023-11-25T07:56:47;1;1;
80413;PMS5003;69758;52.580;13.068;2023-11-25T07:59:13;1;1;
80413;PMS5003;69758;52.580;13.068;2023-11-25T08:01:38;2;2;
80413;PMS5003;69758;52.580;13.068;2023-11-25T08:04:04;1;1;
80413;PMS5003;69758;52.580;13.068;2023-11-25T08:06:29;1;1;
80413;PMS5003;69758;52.580;13.068;2023-11-25T08:08:55;2;2;
80413;PMS5003;69758;52.580;13.068;2023-11-25T08:11:22;2;2;
80413;PMS5003;69758;52.580;13.068;2023-11-25T08:13:46;2;1;
80413;PMS5003;69758;52.580;13.068;2023-11-25T08:16:12;1;1;
80413;PMS5003;69758;52.580;13.068;2023-11-25T08:18:37;1;1;
80413;PMS5003;69758;52.580;13.068;2023-11-25T08:21:02;2;1;
80413;PMS5003;69758;52.580;13.068;2023-11-25T08:23:28;1;1;
80413;PMS5003;69758;52.580;13.068;2023-11-25T08:25:53;1;1;
80413;PMS5003;69758;52.580;13.068;2023-11-25T08:28:19;1;1;
80413;PMS5003;69758;52.580;13.068;2023-11-25T08:30:44;1;1;
80413;PMS5003;69758;52.580;13.068;2023-11-25T08:33:10;1;1;
80413;PMS5003;69758;52.580;13.068;2023-11-25T08:35:35;1;1;
80413;PMS5003;69758;52.580;13.068;2023-11-25T08:38:01;2;1;
80413;PMS5003;69758;52.580;13.068;2023-11-25T08:40:26;1;1;
80413;PMS5003;69758;52.580;13.068;2023-11-25T08:42:52;2;1;
80413;PMS5003;69758;52.580;13.068;2023-11-25T08:45:17;1;1;
80413;PMS5003;69758;52.580;13.068;2023-11-25T08:47:43;0;0;
80413;PMS5003;69758;52.580;13.068;2023-11-25T08:50:09;2;1;
80413;PMS5003;69758;52.580;13.068;2023-11-25T08:52:34;1;1;
80413;PMS5003;69758;52.580;13.068;2023-11-25T08:54:59;2;1;
80413;PMS5003;69758;52.580;13.068;2023-11-25T08:57:25;0;0;
80413;PMS5003;69758;52.580;13.068;2023-11-25T08:59:50;0;0;
80413;PMS5003;69758;52.580;13.068;2023-11-25T09:02:16;1;1;
80413;PMS5003;69758;52.580;13.068;2023-11-25T09:04:41;0;0;
80413;PMS5003;69758;52.580;13.068;2023-11-25T09:07:07;2;1;
80413;PMS5003;69758;52.580;13.068;2023-11-25T09:09:32;2;2;
80413;PMS5003;69758;52.580;13.068;2023-11-25T09:11:58;1;1;
80413;PMS5003;69758;52.580;13.068;2023-11-25T09:14:23;0;0;
80413;PMS5003;69758;52.580;13.068;2023-11-25T09:16:49;1;0;
80413;PMS5003;69758;52.580;13.068;2023-11-25T09:19:14;0;0;
80413;PMS5003;69758;52.580;13.068;2023-11-25T09:21:40;1;1;
80413;PMS5003;69758;52.580;13.068;2023-11-25T09:24:05;1;1;
80413;PMS5003;69758;52.580;13.068;2023-11-25T09:26:31;0;0;
80413;PMS5003;69758;52.580;13.068;2023-11-25T09:28:56;5;2;
80413;PMS5003;69758;52.580;13.068;2023-11-25T09:31:22;1;1;
80413;PMS5003;69758;52.580;13.068;2023-11-25T09:33:47;5;5;
80413;PMS5003;69758;52.580;13.068;2023-11-25T09:36:13;3;2;
80413;PMS5003;69758;52.580;13.068;2023-11-25T09:38:38;3;3;
80413;PMS5003;69758;52.580;13.068;2023-11-25T09:41:04;3;2;
80413;PMS5003;69758;52.580;13.068;2023-11-25T09:43:29;5;2;
80413;PMS5003;69758;52.580;13.068;2023-11-25T09:45:55;1;1;
80413;PMS5003;69758;52.580;13.068;2023-11-25T09:48:20;2;2;
80413;PMS5003;69758;52.580;13.068;2023-11-25T09:50:47;3;2;
80413;PMS5003;69758;52.580;13.068;2023-11-25T09:53:12;2;2;
80413;PMS5003;69758;52.580;13.068;2023-11-25T09:55:37;2;2;
80413;PMS5003;69758;52.580;13.068;2023-11-25T09:58:04;2;2;
80413;PMS5003;69758;52.580;13.068;2023-11-25T10:00:28;1;1;
80413;PMS5003;69758;52.580;13.068;2023-11-25T10:02:54;3;2;
80413;PMS5003;69758;52.580;13.068;2023-11-25T10:05:19;3;3;
80413;PMS5003;69758;52.580;13.068;2023-11-25T10:07:44;3;3;
80413;PMS5003;69758;52.580;13.068;2023-11-25T10:10:10;2;2;
80413;PMS5003;69758;52.580;13.068;2023-11-25T10:12:35;4;4;
80413;PMS5003;69758;52.580;13.068;2023-11-25T10:15:01;3;3;
80413;PMS5003;69758;52.580;13.068;2023-11-25T10:17:27;4;3;
80413;PMS5003;69758;52.580;13.068;2023-11-25T10:22:17;3;3;
80413;PMS5003;69758;52.580;13.068;2023-11-25T10:24:43;3;3;
80413;PMS5003;69758;52.580;13.068;2023-11-25T10:27:08;3;3;
80413;PMS5003;69758;52.580;13.068;2023-11-25T10:29:35;4;4;
80413;PMS5003;69758;52.580;13.068;2023-11-25T10:31:59;4;4;
80413;PMS5003;69758;52.580;13.068;2023-11-25T10:34:24;4;3;
80413;PMS5003;69758;52.580;13.068;2023-11-25T10:36:50;3;3;
80413;PMS5003;69758;52.580;13.068;2023-11-25T10:39:15;4;3;
80413;PMS5003;69758;52.580;13.068;2023-11-25T10:41:41;3;3;
80413;PMS5003;69758;52.580;13.068;2023-11-25T10:44:07;4;3;
80413;PMS5003;69758;52.580;13.068;2023-11-25T10:46:37;2;1;
80413;PMS5003;69758;52.580;13.068;2023-11-25T10:48:57;4;2;
80413;PMS5003;69758;52.580;13.068;2023-11-25T10:51:23;3;3;
80413;PMS5003;69758;52.580;13.068;2023-11-25T10:53:48;3;2;
80413;PMS5003;69758;52.580;13.068;2023-11-25T10:56:14;2;2;
80413;PMS5003;69758;52.580;13.068;2023-11-25T10:58:39;3;2;
80413;PMS5003;69758;52.580;13.068;2023-11-25T11:01:05;3;3;
80413;PMS5003;69758;52.580;13.068;2023-11-25T11:03:36;3;3;
80413;PMS5003;69758;52.580;13.068;2023-11-25T11:05:57;6;4;
80413;PMS5003;69758;52.580;13.068;2023-11-25T11:08:22;2;2;
80413;PMS5003;69758;52.580;13.068;2023-11-25T11:10:50;3;3;
80413;PMS5003;69758;52.580;13.068;2023-11-25T11:13:12;4;4;
80413;PMS5003;69758;52.580;13.068;2023-11-25T11:15:38;2;2;
80413;PMS5003;69758;52.580;13.068;2023-11-25T11:18:05;3;2;
80413;PMS5003;69758;52.580;13.068;2023-11-25T11:20:28;3;2;
80413;PMS5003;69758;52.580;13.068;2023-11-25T11:22:54;3;3;
80413;PMS5003;69758;52.580;13.068;2023-11-25T11:25:22;4;4;
80413;PMS5003;69758;52.580;13.068;2023-11-25T11:27:46;3;3;
80413;PMS5003;69758;52.580;13.068;2023-11-25T11:30:12;2;2;
80413;PMS5003;69758;52.580;13.068;2023-11-25T11:32:36;2;2;
80413;PMS5003;69758;52.580;13.068;2023-11-25T11:35:02;39;37;
80413;PMS5003;69758;52.580;13.068;2023-11-25T11:39:59;6;6;
80413;PMS5003;69758;52.580;13.068;2023-11-25T11:42:24;8;7;
80413;PMS5003;69758;52.580;13.068;2023-11-25T11:47:09;4;4;
80413;PMS5003;69758;52.580;13.068;2023-11-25T11:49:34;6;6;
80413;PMS5003;69758;52.580;13.068;2023-11-25T11:52:00;7;7;
80413;PMS5003;69758;52.580;13.068;2023-11-25T11:54:26;7;6;
80413;PMS5003;69758;52.580;13.068;2023-11-25T11:57:00;6;6;
80413;PMS5003;69758;52.580;13.068;2023-11-25T11:59:16;7;6;
80413;PMS5003;69758;52.580;13.068;2023-11-25T12:01:42;11;9;
80413;PMS5003;69758;52.580;13.068;2023-11-25T12:04:07;6;6;
80413;PMS5003;69758;52.580;13.068;2023-11-25T12:06:33;4;4;
80413;PMS5003;69758;52.580;13.068;2023-11-25T12:08:58;7;7;
80413;PMS5003;69758;52.580;13.068;2023-11-25T12:11:24;9;8;
80413;PMS5003;69758;52.580;13.068;2023-11-25T12:13:49;7;7;
80413;PMS5003;69758;52.580;13.068;2023-11-25T12:16:15;7;7;
80413;PMS5003;69758;52.580;13.068;2023-11-25T12:18:40;43;41;
80413;PMS5003;69758;52.580;13.068;2023-11-25T12:21:06;28;27;
80413;PMS5003;69758;52.580;13.068;2023-11-25T12:23:31;9;9;
80413;PMS5003;69758;52.580;13.068;2023-11-25T12:25:57;7;7;
80413;PMS5003;69758;52.580;13.068;2023-11-25T12:28:22;4;4;
80413;PMS5003;69758;52.580;13.068;2023-11-25T12:30:47;4;4;
80413;PMS5003;69758;52.580;13.068;2023-11-25T12:33:13;3;3;
80413;PMS5003;69758;52.580;13.068;2023-11-25T12:35:39;4;4;
80413;PMS5003;69758;52.580;13.068;2023-11-25T12:38:04;7;7;
80413;PMS5003;69758;52.580;13.068;2023-11-25T12:40:29;6;4;
80413;PMS5003;69758;52.580;13.068;2023-11-25T12:42:55;7;7;
80413;PMS5003;69758;52.580;13.068;2023-11-25T12:45:26;7;7;
80413;PMS5003;69758;52.580;13.068;2023-11-25T12:47:46;4;4;
80413;PMS5003;69758;52.580;13.068;2023-11-25T12:50:11;7;7;
80413;PMS5003;69758;52.580;13.068;2023-11-25T12:52:37;7;7;
80413;PMS5003;69758;52.580;13.068;2023-11-25T12:55:03;13;11;
80413;PMS5003;69758;52.580;13.068;2023-11-25T12:57:28;11;10;
80413;PMS5003;69758;52.580;13.068;2023-11-25T12:59:53;6;6;
80413;PMS5003;69758;52.580;13.068;2023-11-25T13:02:19;3;3;
80413;PMS5003;69758;52.580;13.068;2023-11-25T13:04:44;4;4;
80413;PMS5003;69758;52.580;13.068;2023-11-25T13:07:10;3;3;
80413;PMS5003;69758;52.580;13.068;2023-11-25T13:09:35;4;4;
80413;PMS5003;69758;52.580;13.068;2023-11-25T13:12:01;4;3;
80413;PMS5003;69758;52.580;13.068;2023-11-25T13:14:26;7;7;
80413;PMS5003;69758;52.580;13.068;2023-11-25T13:16:52;6;4;
80413;PMS5003;69758;52.580;13.068;2023-11-25T13:19:17;6;6;
80413;PMS5003;69758;52.580;13.068;2023-11-25T13:21:43;18;16;
80413;PMS5003;69758;52.580;13.068;2023-11-25T13:24:08;9;8;
80413;PMS5003;69758;52.580;13.068;2023-11-25T13:26:33;12;12;
80413;PMS5003;69758;52.580;13.068;2023-11-25T13:28:59;7;7;
80413;PMS5003;69758;52.580;13.068;2023-11-25T13:31:24;7;6;
80413;PMS5003;69758;52.580;13.068;2023-11-25T13:33:50;6;6;
80413;PMS5003;69758;52.580;13.068;2023-11-25T13:36:15;6;6;
80413;PMS5003;69758;52.580;13.068;2023-11-25T13:38:41;7;6;
80413;PMS5003;69758;52.580;13.068;2023-11-25T13:41:06;6;5;
80413;PMS5003;69758;52.580;13.068;2023-11-25T13:43:32;6;6;
80413;PMS5003;69758;52.580;13.068;2023-11-25T13:45:57;7;6;
80413;PMS5003;69758;52.580;13.068;2023-11-25T13:48:23;10;7;
80413;PMS5003;69758;52.580;13.068;2023-11-25T13:50:48;7;6;
80413;PMS5003;69758;52.580;13.068;2023-11-25T13:53:14;5;5;
80413;PMS5003;69758;52.580;13.068;2023-11-25T13:55:39;7;7;
80413;PMS5003;69758;52.580;13.068;2023-11-25T13:58:05;8;7;
80413;PMS5003;69758;52.580;13.068;2023-11-25T14:00:30;5;5;
80413;PMS5003;69758;52.580;13.068;2023-11-25T14:02:56;7;6;
80413;PMS5003;69758;52.580;13.068;2023-11-25T14:05:21;8;7;
80413;PMS5003;69758;52.580;13.068;2023-11-25T14:07:47;8;7;
80413;PMS5003;69758;52.580;13.068;2023-11-25T14:10:13;7;6;
80413;PMS5003;69758;52.580;13.068;2023-11-25T14:12:38;8;7;
80413;PMS5003;69758;52.580;13.068;2023-11-25T14:15:04;8;8;
80413;PMS5003;69758;52.580;13.068;2023-11-25T14:17:29;7;6;
80413;PMS5003;69758;52.580;13.068;2023-11-25T14:19:55;6;5;
80413;PMS5003;69758;52.580;13.068;2023-11-25T14:22:20;8;8;
80413;PMS5003;69758;52.580;13.068;2023-11-25T14:24:46;10;8;
80413;PMS5003;69758;52.580;13.068;2023-11-25T14:27:12;10;8;
80413;PMS5003;69758;52.580;13.068;2023-11-25T14:29:37;8;8;
80413;PMS5003;69758;52.580;13.068;2023-11-25T14:32:03;8;7;
80413;PMS5003;69758;52.580;13.068;2023-11-25T14:34:28;11;11;
80413;PMS5003;69758;52.580;13.068;2023-11-25T14:36:53;22;22;
80413;PMS5003;69758;52.580;13.068;2023-11-25T14:39:19;8;8;
80413;PMS5003;69758;52.580;13.068;2023-11-25T14:41:44;6;6;
80413;PMS5003;69758;52.580;13.068;2023-11-25T14:44:10;8;8;
80413;PMS5003;69758;52.580;13.068;2023-11-25T14:46:35;10;10;
80413;PMS5003;69758;52.580;13.068;2023-11-25T14:49:01;6;6;
80413;PMS5003;69758;52.580;13.068;2023-11-25T14:51:26;7;6;
80413;PMS5003;69758;52.580;13.068;2023-11-25T14:53:52;6;6;
80413;PMS5003;69758;52.580;13.068;2023-11-25T14:56:17;10;8;
80413;PMS5003;69758;52.580;13.068;2023-11-25T14:58:43;8;8;
80413;PMS5003;69758;52.580;13.068;2023-11-25T15:01:08;10;8;
80413;PMS5003;69758;52.580;13.068;2023-11-25T15:03:34;7;6;
80413;PMS5003;69758;52.580;13.068;2023-11-25T15:06:00;10;7;
80413;PMS5003;69758;52.580;13.068;2023-11-25T15:08:25;3;3;
80413;PMS5003;69758;52.580;13.068;2023-11-25T15:10:51;6;6;
80413;PMS5003;69758;52.580;13.068;2023-11-25T15:13:16;6;5;
80413;PMS5003;69758;52.580;13.068;2023-11-25T15:15:42;6;6;
80413;PMS5003;69758;52.580;13.068;2023-11-25T15:18:07;6;6;
80413;PMS5003;69758;52.580;13.068;2023-11-25T15:20:33;11;7;
80413;PMS5003;69758;52.580;13.068;2023-11-25T15:22:58;12;11;
80413;PMS5003;69758;52.580;13.068;2023-11-25T15:25:24;7;7;
80413;PMS5003;69758;52.580;13.068;2023-11-25T15:27:50;8;7;
80413;PMS5003;69758;52.580;13.068;2023-11-25T15:30:15;7;7;
80413;PMS5003;69758;52.580;13.068;2023-11-25T15:32:41;6;5;
80413;PMS5003;69758;52.580;13.068;2023-11-25T15:35:06;12;11;
80413;PMS5003;69758;52.580;13.068;2023-11-25T15:37:31;17;15;
80413;PMS5003;69758;52.580;13.068;2023-11-25T15:39:57;12;11;
80413;PMS5003;69758;52.580;13.068;2023-11-25T15:42:23;7;6;
80413;PMS5003;69758;52.580;13.068;2023-11-25T15:44:48;10;8;
80413;PMS5003;69758;52.580;13.068;2023-11-25T15:47:14;8;7;
80413;PMS5003;69758;52.580;13.068;2023-11-25T15:49:39;7;6;
80413;PMS5003;69758;52.580;13.068;2023-11-25T15:52:05;8;8;
80413;PMS5003;69758;52.580;13.068;2023-11-25T15:54:30;8;7;
80413;PMS5003;69758;52.580;13.068;2023-11-25T15:56:56;6;6;
80413;PMS5003;69758;52.580;13.068;2023-11-25T15:59:21;6;6;
80413;PMS5003;69758;52.580;13.068;2023-11-25T16:01:47;6;6;
80413;PMS5003;69758;52.580;13.068;2023-11-25T16:04:12;10;10;
80413;PMS5003;69758;52.580;13.068;2023-11-25T16:06:37;11;10;
80413;PMS5003;69758;52.580;13.068;2023-11-25T16:09:03;9;8;
80413;PMS5003;69758;52.580;13.068;2023-11-25T16:11:28;9;8;
80413;PMS5003;69758;52.580;13.068;2023-11-25T16:13:54;10;8;
80413;PMS5003;69758;52.580;13.068;2023-11-25T16:16:19;16;15;
80413;PMS5003;69758;52.580;13.068;2023-11-25T16:18:45;10;8;
80413;PMS5003;69758;52.580;13.068;2023-11-25T16:21:11;10;8;
80413;PMS5003;69758;52.580;13.068;2023-11-25T16:23:36;8;7;
80413;PMS5003;69758;52.580;13.068;2023-11-25T16:26:02;8;7;
80413;PMS5003;69758;52.580;13.068;2023-11-25T16:28:27;8;8;
80413;PMS5003;69758;52.580;13.068;2023-11-25T16:30:52;8;7;
80413;PMS5003;69758;52.580;13.068;2023-11-25T16:33:18;7;7;